createdAt,value
2023-01-29T00:01:12.212Z,9.57
2023-01-29T00:03:40.140Z,10.75
2023-01-29T00:06:09.823Z,8.38
2023-01-29T00:08:39.278Z,11.70
2023-01-29T00:11:09.882Z,11.10
2023-01-29T00:14:11.358Z,10.38
2023-01-29T00:16:39.332Z,11.03
2023-01-29T00:19:07.497Z,10.60
2023-01-29T00:21:35.493Z,10.07
2023-01-29T00:24:03.880Z,11.90
2023-01-29T00:26:33.108Z,10.48
2023-01-29T00:29:02.084Z,11.27
2023-01-29T00:31:32.285Z,11.13
2023-01-29T00:34:03.619Z,10.05
2023-01-29T00:36:31.497Z,10.98
2023-01-29T00:39:03.458Z,10.77
2023-01-29T00:41:51.760Z,11.93
2023-01-29T00:44:38.437Z,11.57
2023-01-29T00:47:27.049Z,11.25
2023-01-29T00:49:55.359Z,11.18
2023-01-29T00:52:26.561Z,10.75
2023-01-29T00:54:56.521Z,10.45
2023-01-29T00:57:27.853Z,12.27
2023-01-29T00:59:56.010Z,11.38
2023-01-29T01:02:43.407Z,10.30
2023-01-29T01:05:19.612Z,10.80
2023-01-29T01:07:51.543Z,10.40
2023-01-29T01:10:25.126Z,10.32
2023-01-29T01:12:58.222Z,10.95
2023-01-29T01:15:28.930Z,10.75
2023-01-29T01:17:59.461Z,10.27
2023-01-29T01:20:29.779Z,11.95
2023-01-29T01:22:57.848Z,11.20
2023-01-29T01:25:27.066Z,11.65
2023-01-29T01:30:28.157Z,11.65
2023-01-29T01:32:56.852Z,10.95
2023-01-29T01:35:24.643Z,10.75
2023-01-29T01:37:52.553Z,10.57
2023-01-29T01:40:22.497Z,11.13
2023-01-29T01:42:56.536Z,10.82
2023-01-29T01:45:36.474Z,11.02
2023-01-29T01:48:24.551Z,10.00
2023-01-29T01:51:03.275Z,10.38
2023-01-29T01:53:43.459Z,11.88
2023-01-29T01:56:19.590Z,10.48
2023-01-29T01:58:56.845Z,11.20
2023-01-29T02:01:29.712Z,11.68
2023-01-29T02:04:28.984Z,10.40
2023-01-29T02:07:18.583Z,11.18
2023-01-29T02:10:03.956Z,11.57
2023-01-29T02:12:32.522Z,10.10
2023-01-29T02:15:00.711Z,12.20
2023-01-29T02:17:28.622Z,11.13
2023-01-29T02:20:15.176Z,12.80
2023-01-29T02:22:55.988Z,12.00
2023-01-29T02:25:34.140Z,12.10
2023-01-29T02:28:11.095Z,12.88
2023-01-29T02:30:50.729Z,12.07
2023-01-29T02:33:39.774Z,11.55
2023-01-29T02:36:14.027Z,11.45
2023-01-29T02:39:16.032Z,12.43
2023-01-29T02:41:46.778Z,13.77
2023-01-29T02:44:27.106Z,11.75
2023-01-29T02:47:18.990Z,11.38
2023-01-29T02:49:59.957Z,11.80
2023-01-29T02:52:39.479Z,11.55
2023-01-29T02:55:18.407Z,10.57
2023-01-29T02:57:48.826Z,11.07
2023-01-29T03:00:21.772Z,12.52
2023-01-29T03:02:56.454Z,11.38
2023-01-29T03:05:45.308Z,11.52
2023-01-29T03:08:20.395Z,12.30
2023-01-29T03:10:58.068Z,12.18
2023-01-29T03:13:55.643Z,12.48
2023-01-29T03:16:38.173Z,10.93
2023-01-29T03:19:22.011Z,11.95
2023-01-29T03:22:00.215Z,12.32
2023-01-29T03:25:04.088Z,11.85
2023-01-29T03:28:13.875Z,11.75
2023-01-29T03:31:14.445Z,11.00
2023-01-29T03:34:28.542Z,11.27
2023-01-29T03:37:01.654Z,11.00
2023-01-29T03:39:30.346Z,11.73
2023-01-29T03:42:23.000Z,11.07
2023-01-29T03:45:14.524Z,10.95
2023-01-29T03:48:07.924Z,12.00
2023-01-29T03:50:47.804Z,10.73
2023-01-29T03:54:04.304Z,11.68
2023-01-29T03:59:22.646Z,9.65
2023-01-29T04:02:18.039Z,11.07
2023-01-29T04:04:51.964Z,10.88
2023-01-29T04:07:24.429Z,11.63
2023-01-29T04:10:12.150Z,10.82
2023-01-29T04:13:00.530Z,12.02
2023-01-29T04:15:34.234Z,12.32
2023-01-29T04:18:02.782Z,12.23
2023-01-29T04:21:01.211Z,12.18
2023-01-29T04:23:29.757Z,10.25
2023-01-29T04:26:15.754Z,12.80
2023-01-29T04:28:58.805Z,10.88
2023-01-29T04:31:34.565Z,10.80
2023-01-29T04:34:19.241Z,11.18
2023-01-29T04:36:57.687Z,11.48
2023-01-29T04:39:37.213Z,10.30
2023-01-29T04:42:22.655Z,12.38
2023-01-29T04:47:45.483Z,8.57
2023-01-29T04:50:41.814Z,12.23
2023-01-29T04:53:18.742Z,11.50
2023-01-29T04:55:52.857Z,9.90
2023-01-29T04:59:04.204Z,11.90
2023-01-29T05:01:33.534Z,12.35
2023-01-29T05:04:12.476Z,11.95
2023-01-29T05:06:41.725Z,11.40
2023-01-29T05:09:12.927Z,11.88
2023-01-29T05:11:42.338Z,12.48
2023-01-29T05:14:14.586Z,11.43
2023-01-29T05:16:50.815Z,12.27
2023-01-29T05:19:18.775Z,13.10
2023-01-29T05:21:48.915Z,12.82
2023-01-29T05:24:20.180Z,13.25
2023-01-29T05:27:08.467Z,13.02
2023-01-29T05:29:36.668Z,12.27
2023-01-29T05:32:04.609Z,13.48
2023-01-29T05:34:32.416Z,14.25
2023-01-29T05:37:00.256Z,12.82
2023-01-29T05:39:28.178Z,13.57
2023-01-29T05:41:56.062Z,13.38
2023-01-29T05:44:23.954Z,13.43
2023-01-29T05:46:52.044Z,13.18
2023-01-29T05:49:20.647Z,14.80
2023-01-29T05:51:48.547Z,15.98
2023-01-29T05:54:16.706Z,13.18
2023-01-29T05:56:44.711Z,13.35
2023-01-29T05:59:12.604Z,14.50
2023-01-29T06:01:40.529Z,14.90
2023-01-29T06:04:08.832Z,14.25
2023-01-29T06:06:36.668Z,13.30
2023-01-29T06:09:04.645Z,13.10
2023-01-29T06:11:32.503Z,15.50
2023-01-29T06:14:01.304Z,13.80
2023-01-29T06:16:29.150Z,15.05
2023-01-29T06:18:57.133Z,14.88
2023-01-29T06:21:24.954Z,13.55
2023-01-29T06:23:55.952Z,14.30
2023-01-29T06:26:23.947Z,13.73
2023-01-29T06:28:52.056Z,15.07
2023-01-29T06:31:36.652Z,14.43
2023-01-29T06:34:06.840Z,13.55
2023-01-29T06:36:34.696Z,14.38
2023-01-29T06:39:03.087Z,14.45
2023-01-29T06:41:31.012Z,13.30
2023-01-29T06:43:58.951Z,13.55
2023-01-29T06:46:27.082Z,15.27
2023-01-29T06:48:57.329Z,13.52
2023-01-29T06:51:25.149Z,14.07
2023-01-29T06:53:54.549Z,12.65
2023-01-29T06:56:23.349Z,13.65
2023-01-29T06:58:52.449Z,14.15
2023-01-29T07:01:34.534Z,14.38
2023-01-29T07:04:04.134Z,16.15
2023-01-29T07:06:35.024Z,14.40
2023-01-29T07:09:04.115Z,14.65
2023-01-29T07:11:33.894Z,15.27
2023-01-29T07:14:01.735Z,15.00
2023-01-29T07:16:29.697Z,14.75
2023-01-29T07:18:57.615Z,15.43
2023-01-29T07:21:25.775Z,14.65
2023-01-29T07:23:53.780Z,14.85
2023-01-29T07:26:21.636Z,13.63
2023-01-29T07:28:49.466Z,14.65
2023-01-29T07:31:17.428Z,14.43
2023-01-29T07:33:45.958Z,12.95
2023-01-29T07:36:14.821Z,14.52
2023-01-29T07:38:42.794Z,14.65
2023-01-29T07:41:11.709Z,14.50
2023-01-29T07:43:39.573Z,15.18
2023-01-29T07:46:07.739Z,15.50
2023-01-29T07:48:35.950Z,15.25
2023-01-29T07:51:04.164Z,13.50
2023-01-29T07:53:32.707Z,15.35
2023-01-29T07:56:00.742Z,15.63
2023-01-29T07:58:28.649Z,15.75
2023-01-29T08:00:56.532Z,16.02
2023-01-29T08:03:24.386Z,14.38
2023-01-29T08:05:52.301Z,16.48
2023-01-29T08:08:20.294Z,15.93
2023-01-29T08:10:48.166Z,16.13
2023-01-29T08:13:16.119Z,14.57
2023-01-29T08:15:46.784Z,14.80
2023-01-29T08:18:15.337Z,15.43
2023-01-29T08:20:43.112Z,15.68
2023-01-29T08:23:16.338Z,16.23
2023-01-29T08:25:44.512Z,14.48
2023-01-29T08:28:12.665Z,14.25
2023-01-29T08:30:40.717Z,14.70
2023-01-29T08:33:08.525Z,15.68
2023-01-29T08:35:36.862Z,14.35
2023-01-29T08:38:05.684Z,14.75
2023-01-29T08:40:35.353Z,15.32
2023-01-29T08:43:07.813Z,14.50
2023-01-29T08:45:42.465Z,12.50
2023-01-29T08:48:11.537Z,13.38
2023-01-29T08:50:40.174Z,12.75
2023-01-29T08:53:09.473Z,14.00
2023-01-29T08:55:39.391Z,13.55
2023-01-29T08:58:10.522Z,12.63
2023-01-29T09:00:39.093Z,13.50
2023-01-29T09:03:08.203Z,12.05
2023-01-29T09:05:41.706Z,13.60
2023-01-29T09:08:10.906Z,11.77
2023-01-29T09:10:39.441Z,13.50
2023-01-29T09:13:07.832Z,11.65
2023-01-29T09:15:36.124Z,12.05
2023-01-29T09:18:05.840Z,12.88
2023-01-29T09:20:34.323Z,12.45
2023-01-29T09:25:50.708Z,9.75
2023-01-29T09:28:19.084Z,11.93
2023-01-29T09:30:47.638Z,9.27
2023-01-29T09:33:15.993Z,11.20
2023-01-29T09:35:45.978Z,12.57
2023-01-29T09:38:15.032Z,13.43
2023-01-29T09:40:51.780Z,13.00
2023-01-29T09:43:24.734Z,12.77
2023-01-29T09:45:58.634Z,12.05
2023-01-29T09:48:30.213Z,12.90
2023-01-29T09:51:02.942Z,12.93
2023-01-29T09:54:01.670Z,12.70
2023-01-29T09:56:30.078Z,13.38
2023-01-29T09:59:01.551Z,11.77
2023-01-29T10:01:55.062Z,13.30
2023-01-29T10:04:52.595Z,12.82
2023-01-29T10:07:56.446Z,12.75
2023-01-29T10:10:27.080Z,11.18
2023-01-29T10:13:28.965Z,10.68
2023-01-29T10:16:14.430Z,10.32
2023-01-29T10:21:42.973Z,9.32
2023-01-29T10:24:33.912Z,9.68
2023-01-29T10:27:02.406Z,10.82
2023-01-29T10:29:31.458Z,10.55
2023-01-29T10:32:05.046Z,12.15
2023-01-29T10:34:33.239Z,10.27
2023-01-29T10:37:06.746Z,9.48
2023-01-29T10:39:34.763Z,11.60
2023-01-29T10:42:31.725Z,11.27
2023-01-29T10:45:41.681Z,11.20
2023-01-29T10:48:39.031Z,11.20
2023-01-29T10:51:16.309Z,11.68
2023-01-29T10:53:47.231Z,11.00
2023-01-29T10:56:22.606Z,12.40
2023-01-29T10:59:34.796Z,10.88
2023-01-29T11:02:03.366Z,9.38
2023-01-29T11:04:34.043Z,11.63
2023-01-29T11:07:01.892Z,12.45
2023-01-29T11:09:50.636Z,10.95
2023-01-29T11:12:26.796Z,11.63
2023-01-29T11:15:03.168Z,10.93
2023-01-29T11:17:31.343Z,10.43
2023-01-29T11:19:59.458Z,12.85
2023-01-29T11:22:29.044Z,10.90
2023-01-29T11:25:17.247Z,12.02
2023-01-29T11:27:52.097Z,11.23
2023-01-29T11:30:35.857Z,13.07
2023-01-29T11:33:23.699Z,12.15
2023-01-29T11:35:52.660Z,11.05
2023-01-29T11:38:24.757Z,11.73
2023-01-29T11:40:53.446Z,11.70
2023-01-29T11:43:31.119Z,12.98
2023-01-29T11:46:05.190Z,10.65
2023-01-29T11:48:59.348Z,8.27
2023-01-29T11:51:34.721Z,9.25
2023-01-29T11:54:05.058Z,12.13
2023-01-29T11:56:46.205Z,12.00
2023-01-29T11:59:37.306Z,13.43
2023-01-29T12:02:17.802Z,8.55
2023-01-29T12:04:46.345Z,13.25
2023-01-29T12:07:16.618Z,12.38
2023-01-29T12:09:57.376Z,12.45
2023-01-29T12:12:29.978Z,11.70
2023-01-29T12:15:26.193Z,15.23
2023-01-29T12:18:20.247Z,14.50
2023-01-29T12:20:59.733Z,12.00
2023-01-29T12:23:36.866Z,12.40
2023-01-29T12:26:13.664Z,12.55
2023-01-29T12:29:00.537Z,12.98
2023-01-29T12:32:00.534Z,11.70
2023-01-29T12:34:46.290Z,15.82
2023-01-29T12:37:40.514Z,13.23
2023-01-29T12:40:19.388Z,14.18
2023-01-29T12:42:53.307Z,14.43
2023-01-29T12:45:24.065Z,14.40
2023-01-29T12:48:11.554Z,16.55
2023-01-29T12:50:42.865Z,16.30
2023-01-29T12:53:15.179Z,15.88
2023-01-29T12:55:55.784Z,17.75
2023-01-29T12:58:36.091Z,15.88
2023-01-29T13:01:31.270Z,16.95
2023-01-29T13:03:59.135Z,15.70
2023-01-29T13:06:31.537Z,17.98
2023-01-29T13:09:03.295Z,14.82
2023-01-29T13:11:56.069Z,17.17
2023-01-29T13:14:31.875Z,17.42
2023-01-29T13:17:35.948Z,13.02
2023-01-29T13:20:23.132Z,18.60
2023-01-29T13:22:54.277Z,13.82
2023-01-29T13:25:22.444Z,16.45
2023-01-29T13:27:50.867Z,18.58
2023-01-29T13:30:34.222Z,17.27
2023-01-29T13:33:11.123Z,15.52
2023-01-29T13:35:45.570Z,18.02
2023-01-29T13:38:26.677Z,17.67
2023-01-29T13:41:01.744Z,18.73
2023-01-29T13:43:39.957Z,15.48
2023-01-29T13:46:15.481Z,16.88
2023-01-29T13:48:47.330Z,18.42
2023-01-29T13:51:21.079Z,17.95
2023-01-29T13:54:04.247Z,16.95
2023-01-29T13:56:35.898Z,16.25
2023-01-29T13:59:06.140Z,18.13
2023-01-29T14:01:47.290Z,18.52
2023-01-29T14:04:25.583Z,16.63
2023-01-29T14:06:57.959Z,18.15
2023-01-29T14:09:37.962Z,18.67
2023-01-29T14:12:25.713Z,17.42
2023-01-29T14:14:59.028Z,14.50
2023-01-29T14:17:28.733Z,16.92
2023-01-29T14:20:18.364Z,17.55
2023-01-29T14:22:56.338Z,16.25
2023-01-29T14:25:30.929Z,19.45
2023-01-29T14:28:01.824Z,18.58
2023-01-29T14:30:38.478Z,15.70
2023-01-29T14:33:22.839Z,16.45
2023-01-29T14:35:52.178Z,14.85
2023-01-29T14:38:22.670Z,16.55
2023-01-29T14:40:51.095Z,17.77
2023-01-29T14:43:21.749Z,17.20
2023-01-29T14:45:51.546Z,15.75
2023-01-29T14:48:45.619Z,12.98
2023-01-29T14:51:18.215Z,16.52
2023-01-29T14:54:24.841Z,14.68
2023-01-29T14:57:05.115Z,15.38
2023-01-29T14:59:56.386Z,15.73
2023-01-29T15:02:33.738Z,15.98
2023-01-29T15:05:04.525Z,14.20
2023-01-29T15:07:44.525Z,17.27
2023-01-29T15:10:22.720Z,11.38
2023-01-29T15:13:41.637Z,13.60
2023-01-29T15:16:22.873Z,12.05
2023-01-29T15:18:56.425Z,14.13
2023-01-29T15:21:24.311Z,16.30
2023-01-29T15:24:05.766Z,16.95
2023-01-29T15:26:35.921Z,16.38
2023-01-29T15:29:05.899Z,15.43
2023-01-29T15:31:35.560Z,14.35
2023-01-29T15:34:07.568Z,15.57
2023-01-29T15:36:38.689Z,17.17
2023-01-29T15:39:12.385Z,15.05
2023-01-29T15:41:40.877Z,16.42
2023-01-29T15:44:18.683Z,14.20
2023-01-29T15:46:56.387Z,15.70
2023-01-29T15:49:33.879Z,16.25
2023-01-29T15:52:19.801Z,15.85
2023-01-29T15:54:48.305Z,16.17
2023-01-29T15:57:22.577Z,12.38
2023-01-29T15:59:53.318Z,14.75
2023-01-29T16:02:39.806Z,15.48
2023-01-29T16:05:15.493Z,16.08
2023-01-29T16:07:45.254Z,15.13
2023-01-29T16:10:29.028Z,16.92
2023-01-29T16:12:58.113Z,16.27
2023-01-29T16:15:34.812Z,14.07
2023-01-29T16:18:19.497Z,17.52
2023-01-29T16:20:52.942Z,17.05
2023-01-29T16:23:35.056Z,17.23
2023-01-29T16:26:15.007Z,17.00
2023-01-29T16:28:44.770Z,14.10
2023-01-29T16:31:20.651Z,15.63
2023-01-29T16:33:49.650Z,16.65
2023-01-29T16:36:21.991Z,17.55
2023-01-29T16:38:54.378Z,16.95
2023-01-29T16:41:22.359Z,15.57
2023-01-29T16:43:55.819Z,16.90
2023-01-29T16:46:38.802Z,17.90
2023-01-29T16:49:25.570Z,17.00
2023-01-29T16:51:56.408Z,18.40
2023-01-29T16:54:27.859Z,14.05
2023-01-29T16:57:18.392Z,16.83
2023-01-29T16:59:47.346Z,15.10
2023-01-29T17:02:36.030Z,17.42
2023-01-29T17:05:10.326Z,17.45
2023-01-29T17:07:39.311Z,17.90
2023-01-29T17:10:08.450Z,17.50
2023-01-29T17:12:38.756Z,19.02
2023-01-29T17:15:31.390Z,20.02
2023-01-29T17:17:59.664Z,15.82
2023-01-29T17:20:28.025Z,16.70
2023-01-29T17:22:56.108Z,18.80
2023-01-29T17:25:24.708Z,14.32
2023-01-29T17:27:53.272Z,15.80
2023-01-29T17:30:24.054Z,18.65
2023-01-29T17:32:52.396Z,16.67
2023-01-29T17:35:21.672Z,17.45
2023-01-29T17:37:50.027Z,17.73
2023-01-29T17:40:41.288Z,15.05
2023-01-29T17:43:11.743Z,16.48
2023-01-29T17:45:40.811Z,15.95
2023-01-29T17:48:15.526Z,16.67
2023-01-29T17:50:48.427Z,18.40
2023-01-29T17:53:16.907Z,14.60
2023-01-29T17:55:51.871Z,15.18
2023-01-29T17:58:25.136Z,12.70
2023-01-29T18:00:54.526Z,14.45
2023-01-29T18:03:23.319Z,15.77
2023-01-29T18:05:52.012Z,15.18
2023-01-29T18:08:30.041Z,16.27
2023-01-29T18:10:59.201Z,17.20
2023-01-29T18:13:27.779Z,19.45
2023-01-29T18:15:55.818Z,18.50
2023-01-29T18:18:24.979Z,14.05
2023-01-29T18:20:53.065Z,13.88
2023-01-29T18:23:21.179Z,18.40
2023-01-29T18:25:49.116Z,18.02
2023-01-29T18:28:17.987Z,15.65
2023-01-29T18:30:47.558Z,17.63
2023-01-29T18:33:17.065Z,17.70
2023-01-29T18:35:48.571Z,17.52
2023-01-29T18:38:17.343Z,12.75
2023-01-29T18:40:45.200Z,16.27
2023-01-29T18:43:14.802Z,15.40
2023-01-29T18:45:43.123Z,18.33
2023-01-29T18:48:10.974Z,17.13
2023-01-29T18:50:38.740Z,15.82
2023-01-29T18:53:06.609Z,16.17
2023-01-29T18:55:34.479Z,15.75
2023-01-29T18:58:33.457Z,15.18
2023-01-29T19:00:50.401Z,14.88
2023-01-29T19:03:19.530Z,14.68
2023-01-29T19:05:47.539Z,15.75
2023-01-29T19:08:15.513Z,16.50
2023-01-29T19:10:43.590Z,16.23
2023-01-29T19:13:11.763Z,16.02
2023-01-29T19:15:43.515Z,10.40
2023-01-29T19:18:14.650Z,15.80
2023-01-29T19:20:42.869Z,13.10
2023-01-29T19:23:10.974Z,16.70
2023-01-29T19:25:39.753Z,16.10
2023-01-29T19:28:08.847Z,12.98
2023-01-29T19:30:36.831Z,14.23
2023-01-29T19:33:05.035Z,16.48
2023-01-29T19:35:33.571Z,16.88
2023-01-29T19:38:01.661Z,17.48
2023-01-29T19:40:29.584Z,16.13
2023-01-29T19:42:58.356Z,16.17
2023-01-29T19:45:49.645Z,15.23
2023-01-29T19:48:24.082Z,14.48
2023-01-29T19:51:00.445Z,16.45
2023-01-29T19:53:29.257Z,16.63
2023-01-29T19:56:05.249Z,15.98
2023-01-29T19:58:34.204Z,15.13
2023-01-29T20:01:06.309Z,14.20
2023-01-29T20:03:34.515Z,15.05
2023-01-29T20:06:04.329Z,14.55
2023-01-29T20:08:33.750Z,16.20
2023-01-29T20:11:02.554Z,12.52
2023-01-29T20:13:30.471Z,12.05
2023-01-29T20:16:02.987Z,11.98
2023-01-29T20:18:31.510Z,14.82
2023-01-29T20:21:00.032Z,13.30
2023-01-29T20:23:37.822Z,13.93
2023-01-29T20:26:13.298Z,14.25
2023-01-29T20:28:41.825Z,16.67
2023-01-29T20:31:10.508Z,12.65
2023-01-29T20:33:39.634Z,10.32
2023-01-29T20:36:10.483Z,16.42
2023-01-29T20:38:38.555Z,16.50
2023-01-29T20:41:13.833Z,16.75
2023-01-29T20:43:42.890Z,15.32
2023-01-29T20:46:11.039Z,14.10
2023-01-29T20:48:39.482Z,16.25
2023-01-29T20:51:09.378Z,15.90
2023-01-29T20:53:37.937Z,17.48
2023-01-29T20:56:06.424Z,12.15
2023-01-29T20:58:34.592Z,15.32
2023-01-29T21:01:12.504Z,18.00
2023-01-29T21:03:41.001Z,14.80
2023-01-29T21:06:10.400Z,17.63
2023-01-29T21:08:39.439Z,14.95
2023-01-29T21:11:09.144Z,16.17
2023-01-29T21:13:37.313Z,10.35
2023-01-29T21:16:05.805Z,15.48
2023-01-29T21:18:33.642Z,16.60
2023-01-29T21:21:01.584Z,14.18
2023-01-29T21:23:29.953Z,17.27
2023-01-29T21:26:07.817Z,17.50
2023-01-29T21:28:36.156Z,16.00
2023-01-29T21:31:10.103Z,18.00
2023-01-29T21:33:38.466Z,19.00
2023-01-29T21:36:06.918Z,14.25
2023-01-29T21:38:34.849Z,16.92
2023-01-29T21:41:05.264Z,20.27
2023-01-29T21:43:33.717Z,11.50
2023-01-29T21:46:11.572Z,14.18
2023-01-29T21:48:40.510Z,18.70
2023-01-29T21:51:08.946Z,13.35
2023-01-29T21:53:37.360Z,15.50
2023-01-29T21:56:06.586Z,16.27
2023-01-29T21:58:34.743Z,12.98
2023-01-29T22:01:22.873Z,20.60
2023-01-29T22:03:51.018Z,17.77
2023-01-29T22:06:18.824Z,18.10
2023-01-29T22:08:49.400Z,20.17
2023-01-29T22:11:17.768Z,16.20
2023-01-29T22:13:45.630Z,11.73
2023-01-29T22:16:13.562Z,18.92
2023-01-29T22:18:41.482Z,15.05
2023-01-29T22:21:09.758Z,20.23
2023-01-29T22:23:38.046Z,15.60
2023-01-29T22:26:07.136Z,16.90
2023-01-29T22:28:35.847Z,19.20
2023-01-29T22:31:04.838Z,13.40
2023-01-29T22:33:33.526Z,17.90
2023-01-29T22:36:01.898Z,13.27
2023-01-29T22:38:30.360Z,17.23
2023-01-29T22:40:59.785Z,18.15
2023-01-29T22:43:29.125Z,14.88
2023-01-29T22:45:57.057Z,14.48
2023-01-29T22:48:25.288Z,19.65
2023-01-29T22:51:09.827Z,15.07
2023-01-29T22:53:41.971Z,19.08
2023-01-29T22:56:12.536Z,18.50
2023-01-29T22:58:41.474Z,18.95
2023-01-29T23:01:10.168Z,18.80
2023-01-29T23:03:38.205Z,19.58
2023-01-29T23:06:06.091Z,16.17
2023-01-29T23:08:36.779Z,19.10
2023-01-29T23:11:15.332Z,15.18
2023-01-29T23:13:49.011Z,18.63
2023-01-29T23:16:18.393Z,18.40
2023-01-29T23:18:49.228Z,19.35
2023-01-29T23:21:17.286Z,19.50
2023-01-29T23:23:45.478Z,20.13
2023-01-29T23:26:33.037Z,18.08
2023-01-29T23:29:01.009Z,12.43
2023-01-29T23:31:29.380Z,18.98
2023-01-29T23:33:57.437Z,18.92
2023-01-29T23:36:25.444Z,12.93
2023-01-29T23:38:53.294Z,19.25
2023-01-29T23:41:21.398Z,20.27
2023-01-29T23:43:50.003Z,21.17
2023-01-29T23:46:17.949Z,18.50
2023-01-29T23:48:45.876Z,18.00
2023-01-29T23:51:13.851Z,20.27
2023-01-29T23:53:41.935Z,14.55
2023-01-29T23:56:11.224Z,20.27
2023-01-29T23:58:39.476Z,19.20
